Time;durP1;ratioP1;P1;durP2;ratioP2;P2;SDS_P1;SDS_P2;PMS_P1;PMS_P2;Temp;Humidity;BMP_temperature;BMP_pressure;BME280_temperature;BME280_humidity;BME280_pressure;Samples;Min_cycle;Max_cycle;Signal;HPM_P1;HPM_P2
2022/08/01 06:15:24;;;;;;;4.30;1.75;;;;;;;;;;5757249;24;20069;-63
2022/08/01 06:17:51;;;;;;;8.90;2.10;;;;;;;;;;4850956;29;20034;-63
2022/08/01 06:20:17;;;;;;;19.25;2.63;;;;;;;;;;4848048;29;20070;-63
2022/08/01 06:22:44;;;;;;;6.95;2.08;;;;;;;;;;4845299;29;20080;-61
2022/08/01 06:25:10;;;;;;;12.32;2.22;;;;;;;;;;4840697;29;20044;-61
2022/08/01 06:27:36;;;;;;;12.35;2.15;;;;;;;;;;4844795;29;20037;-61
2022/08/01 06:30:03;;;;;;;8.05;2.28;;;;;;;;;;4839089;29;20034;-61
2022/08/01 06:32:30;;;;;;;22.15;2.33;;;;;;;;;;4840710;29;20494;-61
2022/08/01 06:34:57;;;;;;;6.00;1.98;;;;;;;;;;4842954;29;20037;-61
2022/08/01 06:37:23;;;;;;;45.50;4.22;;;;;;;;;;4841128;29;20033;-62
2022/08/01 06:39:50;;;;;;;12.13;2.28;;;;;;;;;;4840860;29;20042;-61
2022/08/01 06:42:17;;;;;;;77.68;4.05;;;;;;;;;;4841069;29;20460;-62
2022/08/01 06:44:43;;;;;;;7.72;2.38;;;;;;;;;;4840347;29;20398;-61
2022/08/01 06:47:09;;;;;;;10.02;2.20;;;;;;;;;;4840275;29;20026;-61
2022/08/01 06:49:36;;;;;;;10.98;2.22;;;;;;;;;;4840274;29;20042;-61
2022/08/01 06:52:03;;;;;;;8.85;2.10;;;;;;;;;;4840056;29;20018;-61
2022/08/01 06:54:29;;;;;;;28.67;2.72;;;;;;;;;;4839785;29;20037;-62
2022/08/01 06:56:56;;;;;;;15.50;2.13;;;;;;;;;;4838272;29;20033;-61
2022/08/01 06:59:22;;;;;;;10.18;2.85;;;;;;;;;;4825248;29;20047;-62
2022/08/01 07:01:48;;;;;;;6.22;2.03;;;;;;;;;;4840138;29;20415;-61
2022/08/01 07:04:15;;;;;;;4.88;2.22;;;;;;;;;;4841487;29;20036;-61
2022/08/01 07:06:41;;;;;;;5.65;1.70;;;;;;;;;;4842713;29;20030;-62
2022/08/01 07:09:07;;;;;;;7.13;2.10;;;;;;;;;;4843092;29;20030;-61
2022/08/01 07:11:34;;;;;;;5.38;2.05;;;;;;;;;;4855971;29;20029;-61
2022/08/01 07:14:01;;;;;;;5.15;2.30;;;;;;;;;;4842822;29;20068;-61
2022/08/01 07:16:27;;;;;;;7.15;3.20;;;;;;;;;;4842866;29;20049;-62
2022/08/01 07:18:53;;;;;;;7.28;3.00;;;;;;;;;;4849978;29;20409;-62
2022/08/01 07:21:20;;;;;;;3.40;3.08;;;;;;;;;;4853655;29;20435;-62
2022/08/01 07:23:46;;;;;;;5.07;1.63;;;;;;;;;;4842662;29;20034;-73
2022/08/01 07:26:13;;;;;;;1.98;1.80;;;;;;;;;;4843170;29;20029;-73
2022/08/01 07:28:39;;;;;;;4.82;1.90;;;;;;;;;;4843553;29;20089;-74
2022/08/01 07:31:05;;;;;;;2.72;1.77;;;;;;;;;;4848683;29;20040;-74
2022/08/01 07:33:31;;;;;;;2.15;1.80;;;;;;;;;;4851924;29;20044;-74
2022/08/01 07:35:58;;;;;;;4.88;1.85;;;;;;;;;;4841612;29;20525;-74
2022/08/01 07:38:24;;;;;;;5.93;2.00;;;;;;;;;;4842223;29;20030;-74
2022/08/01 07:40:50;;;;;;;9.10;3.65;;;;;;;;;;4842637;29;20106;-74
2022/08/01 07:43:17;;;;;;;8.73;2.42;;;;;;;;;;4843039;29;20030;-74
2022/08/01 07:45:43;;;;;;;6.82;2.50;;;;;;;;;;4842538;29;20064;-74
2022/08/01 07:48:10;;;;;;;9.02;2.65;;;;;;;;;;4847319;29;20090;-74
2022/08/01 07:50:36;;;;;;;5.00;2.95;;;;;;;;;;4845459;29;20026;-74
2022/08/01 07:53:03;;;;;;;4.30;2.38;;;;;;;;;;4843419;29;20036;-73
2022/08/01 07:55:29;;;;;;;36.60;4.57;;;;;;;;;;4823557;29;20052;-74
2022/08/01 07:57:56;;;;;;;10.98;2.25;;;;;;;;;;4842122;29;20443;-74
2022/08/01 08:00:22;;;;;;;14.48;2.58;;;;;;;;;;4841467;29;20034;-74
2022/08/01 08:02:49;;;;;;;14.07;2.40;;;;;;;;;;4842397;29;20030;-74
2022/08/01 08:05:15;;;;;;;10.50;1.90;;;;;;;;;;4842432;29;20028;-74
2022/08/01 08:07:41;;;;;;;12.05;3.38;;;;;;;;;;4841792;29;20030;-74
2022/08/01 08:10:08;;;;;;;5.63;2.97;;;;;;;;;;4841463;29;20037;-74
2022/08/01 08:12:34;;;;;;;19.30;2.38;;;;;;;;;;4842279;29;20494;-74
2022/08/01 08:15:01;;;;;;;6.63;1.80;;;;;;;;;;4841758;29;20517;-74
2022/08/01 08:17:27;;;;;;;4.30;1.30;;;;;;;;;;4841886;29;20430;-74
2022/08/01 08:19:54;;;;;;;5.65;2.05;;;;;;;;;;4855609;29;20037;-74
2022/08/01 08:22:20;;;;;;;5.38;1.75;;;;;;;;;;4846284;29;20033;-74
2022/08/01 08:24:46;;;;;;;5.32;1.83;;;;;;;;;;4841709;29;20517;-74
2022/08/01 08:27:13;;;;;;;3.63;1.75;;;;;;;;;;4841089;29;20026;-74
2022/08/01 08:29:39;;;;;;;5.18;1.73;;;;;;;;;;4840913;29;20022;-74
2022/08/01 08:32:06;;;;;;;2.20;1.73;;;;;;;;;;4842058;29;20026;-74
2022/08/01 08:34:32;;;;;;;9.55;1.70;;;;;;;;;;4824476;29;20905;-74
2022/08/01 08:36:59;;;;;;;2.63;1.60;;;;;;;;;;4849509;29;20037;-74
2022/08/01 08:39:26;;;;;;;4.80;1.88;;;;;;;;;;4849777;29;20034;-74
2022/08/01 08:41:52;;;;;;;30.73;2.92;;;;;;;;;;4841308;29;20038;-72
2022/08/01 08:44:19;;;;;;;3.92;1.73;;;;;;;;;;4840538;29;20034;-72
2022/08/01 08:46:55;;;;;;;7.85;1.90;;;;;;;;;;4842108;29;20022;-73
2022/08/01 08:49:23;;;;;;;9.02;1.90;;;;;;;;;;4838854;29;20041;-74
2022/08/01 08:51:51;;;;;;;7.68;1.73;;;;;;;;;;4860190;29;20036;-74
2022/08/01 08:54:20;;;;;;;14.23;1.75;;;;;;;;;;4843733;29;20060;-74
2022/08/01 08:56:47;;;;;;;7.80;1.60;;;;;;;;;;4857953;29;20022;-74
2022/08/01 08:59:14;;;;;;;3.92;1.77;;;;;;;;;;4837693;29;20029;-74
2022/08/01 09:01:40;;;;;;;5.35;1.65;;;;;;;;;;4841530;29;20048;-74
2022/08/01 09:04:06;;;;;;;6.53;1.60;;;;;;;;;;4841364;29;20026;-74
2022/08/01 09:06:34;;;;;;;8.68;1.80;;;;;;;;;;4841176;29;20030;-74
2022/08/01 09:09:00;;;;;;;3.00;1.50;;;;;;;;;;4841415;29;20022;-74
2022/08/01 09:11:26;;;;;;;9.23;1.52;;;;;;;;;;4841283;29;20455;-74
2022/08/01 09:14:13;;;;;;;4.82;1.50;;;;;;;;;;4840853;29;20040;-74
2022/08/01 09:16:44;;;;;;;5.20;1.50;;;;;;;;;;4841066;29;20443;-74
2022/08/01 09:19:11;;;;;;;6.28;1.50;;;;;;;;;;4847050;29;20042;-74
2022/08/01 09:21:38;;;;;;;4.82;1.70;;;;;;;;;;4855209;29;20030;-75
2022/08/01 09:24:07;;;;;;;3.45;1.42;;;;;;;;;;4849531;29;20038;-74
2022/08/01 09:26:35;;;;;;;5.17;1.70;;;;;;;;;;4840375;29;20078;-74
2022/08/01 09:29:18;;;;;;;7.72;1.33;;;;;;;;;;4841020;29;20053;-77
2022/08/01 09:31:45;;;;;;;4.40;1.40;;;;;;;;;;4841268;29;20037;-74
2022/08/01 09:34:11;;;;;;;6.68;1.60;;;;;;;;;;4841157;29;20082;-69
2022/08/01 09:36:48;;;;;;;5.05;1.38;;;;;;;;;;4840803;29;20040;-76
2022/08/01 09:39:15;;;;;;;4.30;1.45;;;;;;;;;;4841281;29;20048;-73
2022/08/01 09:41:41;;;;;;;5.10;1.48;;;;;;;;;;4841059;29;20034;-71
2022/08/01 09:44:08;;;;;;;5.93;1.60;;;;;;;;;;4841103;29;20026;-73
2022/08/01 09:46:34;;;;;;;5.25;1.35;;;;;;;;;;4840747;29;20026;-72
2022/08/01 09:49:05;;;;;;;4.57;1.20;;;;;;;;;;4851621;29;20040;-71
2022/08/01 09:51:35;;;;;;;10.27;1.30;;;;;;;;;;4859162;29;20386;-74
2022/08/01 09:54:06;;;;;;;5.53;1.33;;;;;;;;;;4849818;29;20072;-74
2022/08/01 09:56:50;;;;;;;5.88;1.25;;;;;;;;;;4840301;29;20029;-71
2022/08/01 09:59:16;;;;;;;7.75;1.30;;;;;;;;;;4841269;29;20036;-74
2022/08/01 10:01:47;;;;;;;2.80;1.00;;;;;;;;;;4840722;29;20390;-66
2022/08/01 10:04:14;;;;;;;4.57;1.13;;;;;;;;;;4840478;29;20034;-71
2022/08/01 10:06:44;;;;;;;3.72;1.40;;;;;;;;;;4837986;29;20074;-71
2022/08/01 10:09:14;;;;;;;5.97;1.17;;;;;;;;;;4840436;29;20026;-71
2022/08/01 10:11:42;;;;;;;2.60;1.20;;;;;;;;;;4840431;29;20038;-70
2022/08/01 10:14:08;;;;;;;2.67;1.10;;;;;;;;;;4840615;29;20041;-71
2022/08/01 10:16:36;;;;;;;3.67;1.45;;;;;;;;;;4840172;29;20075;-71
2022/08/01 10:19:06;;;;;;;3.88;1.20;;;;;;;;;;4847875;29;20513;-71
2022/08/01 10:21:33;;;;;;;4.63;1.00;;;;;;;;;;4858616;29;20517;-71
2022/08/01 10:24:00;;;;;;;2.13;0.98;;;;;;;;;;4858888;29;20037;-71
2022/08/01 10:26:27;;;;;;;5.68;1.15;;;;;;;;;;4858525;29;20029;-71
2022/08/01 10:28:55;;;;;;;2.10;1.00;;;;;;;;;;4858987;29;20029;-72
2022/08/01 10:31:22;;;;;;;2.97;1.20;;;;;;;;;;4858992;29;20041;-71
2022/08/01 10:33:49;;;;;;;1.77;1.08;;;;;;;;;;4859049;29;20047;-72
2022/08/01 10:36:17;;;;;;;1.70;1.13;;;;;;;;;;4859474;29;20025;-71
2022/08/01 10:38:44;;;;;;;2.33;1.13;;;;;;;;;;4859325;29;20025;-72
2022/08/01 10:41:10;;;;;;;1.10;0.88;;;;;;;;;;4842934;29;20036;-71
2022/08/01 10:43:37;;;;;;;3.05;1.00;;;;;;;;;;4859349;29;20039;-72
2022/08/01 10:46:04;;;;;;;3.80;1.17;;;;;;;;;;4859782;29;20036;-72
2022/08/01 10:48:40;;;;;;;8.32;1.58;;;;;;;;;;4859550;29;20021;-70
2022/08/01 10:51:06;;;;;;;2.47;0.85;;;;;;;;;;4859262;29;20044;-80
2022/08/01 10:53:33;;;;;;;1.85;1.02;;;;;;;;;;4858924;29;20034;-74
2022/08/01 10:56:00;;;;;;;4.82;1.00;;;;;;;;;;4859602;29;20033;-73
2022/08/01 10:58:28;;;;;;;2.17;0.90;;;;;;;;;;4859457;29;20457;-71
2022/08/01 11:01:13;;;;;;;3.05;0.80;;;;;;;;;;4859311;29;20037;-70
2022/08/01 11:03:40;;;;;;;4.00;1.30;;;;;;;;;;4859394;29;20032;-69
2022/08/01 11:06:06;;;;;;;1.83;1.10;;;;;;;;;;4859471;29;20033;-71
2022/08/01 11:08:35;;;;;;;1.65;0.90;;;;;;;;;;4858959;29;20604;-70
2022/08/01 11:11:01;;;;;;;3.03;0.82;;;;;;;;;;4859186;29;20034;-70
2022/08/01 11:13:46;;;;;;;3.65;1.33;;;;;;;;;;4859373;29;20026;-77
2022/08/01 11:16:27;;;;;;;3.72;1.08;;;;;;;;;;4859008;29;20049;-72
2022/08/01 11:18:53;;;;;;;4.03;1.00;;;;;;;;;;4859374;29;20037;-76
2022/08/01 11:21:19;;;;;;;2.72;1.10;;;;;;;;;;4859435;29;20034;-76
2022/08/01 11:23:49;;;;;;;1.52;0.80;;;;;;;;;;4859108;29;20053;-75
2022/08/01 11:26:16;;;;;;;1.27;0.95;;;;;;;;;;4859373;29;20409;-75
2022/08/01 11:28:44;;;;;;;2.40;1.00;;;;;;;;;;4859719;29;20049;-75
2022/08/01 11:31:11;;;;;;;1.92;1.02;;;;;;;;;;4859235;29;20032;-75
2022/08/01 11:33:44;;;;;;;1.65;0.90;;;;;;;;;;4857937;29;20033;-75
2022/08/01 11:36:10;;;;;;;1.08;0.80;;;;;;;;;;4838361;29;20034;-75
2022/08/01 11:38:37;;;;;;;1.85;0.95;;;;;;;;;;4840030;29;20492;-75
2022/08/01 11:41:17;;;;;;;1.10;1.00;;;;;;;;;;4840554;29;20034;-75
2022/08/01 11:44:02;;;;;;;1.00;0.85;;;;;;;;;;4839314;29;20032;-76
2022/08/01 11:46:47;;;;;;;2.72;0.80;;;;;;;;;;4842569;29;20034;-76
2022/08/01 11:49:25;;;;;;;3.63;0.90;;;;;;;;;;4842321;29;20514;-76
2022/08/01 11:52:02;;;;;;;2.00;0.90;;;;;;;;;;4843232;29;20034;-76
2022/08/01 11:54:29;;;;;;;3.08;0.98;;;;;;;;;;4843403;29;20444;-76
2022/08/01 11:56:59;;;;;;;2.17;1.20;;;;;;;;;;4843532;29;20022;-77
2022/08/01 11:59:26;;;;;;;1.15;0.80;;;;;;;;;;4843360;29;20037;-76
2022/08/01 12:01:53;;;;;;;3.38;0.98;;;;;;;;;;4843547;29;20036;-76
2022/08/01 12:04:19;;;;;;;1.33;0.90;;;;;;;;;;4843130;29;20030;-75
2022/08/01 12:06:46;;;;;;;1.60;0.70;;;;;;;;;;4825801;29;20052;-75
2022/08/01 12:09:15;;;;;;;2.13;0.90;;;;;;;;;;4843419;29;20081;-76
2022/08/01 12:11:42;;;;;;;2.75;0.95;;;;;;;;;;4843456;29;20042;-76
2022/08/01 12:14:08;;;;;;;7.07;0.98;;;;;;;;;;4842152;29;20500;-76
2022/08/01 12:16:35;;;;;;;2.20;0.80;;;;;;;;;;4843012;29;20053;-76
2022/08/01 12:19:02;;;;;;;1.63;0.85;;;;;;;;;;4850857;29;20041;-75
2022/08/01 12:21:28;;;;;;;1.75;0.70;;;;;;;;;;4861234;29;20531;-75
2022/08/01 12:24:01;;;;;;;3.58;0.77;;;;;;;;;;4861583;29;20033;-74
2022/08/01 12:26:54;;;;;;;1.70;0.88;;;;;;;;;;4844382;29;20022;-76
2022/08/01 12:29:37;;;;;;;1.10;0.93;;;;;;;;;;4840634;29;20054;-77
2022/08/01 12:32:04;;;;;;;1.63;0.80;;;;;;;;;;4824527;29;20048;-78
2022/08/01 12:34:33;;;;;;;3.75;0.85;;;;;;;;;;4836496;29;20038;-77
2022/08/01 12:37:01;;;;;;;3.63;0.73;;;;;;;;;;4842594;29;20034;-78
2022/08/01 12:39:32;;;;;;;3.25;0.90;;;;;;;;;;4827017;29;20044;-74
2022/08/01 12:41:59;;;;;;;1.27;0.90;;;;;;;;;;4842791;29;20026;-74
2022/08/01 12:44:27;;;;;;;1.38;0.80;;;;;;;;;;4842097;29;20038;-77
2022/08/01 12:46:53;;;;;;;1.00;0.90;;;;;;;;;;4842980;29;20038;-77
2022/08/01 12:49:20;;;;;;;1.05;0.85;;;;;;;;;;4826249;29;20033;-76
2022/08/01 12:51:46;;;;;;;3.40;0.90;;;;;;;;;;4842666;29;20213;-76
2022/08/01 12:54:13;;;;;;;2.13;0.82;;;;;;;;;;4842641;29;20044;-77
2022/08/01 12:56:39;;;;;;;2.58;1.08;;;;;;;;;;4842624;29;20030;-77
2022/08/01 12:59:26;;;;;;;3.55;1.00;;;;;;;;;;4842507;29;20022;-74
2022/08/01 13:01:56;;;;;;;1.15;0.60;;;;;;;;;;4842102;29;20040;-76
2022/08/01 13:04:23;;;;;;;1.33;0.90;;;;;;;;;;4842553;29;20097;-76
2022/08/01 13:06:53;;;;;;;0.75;0.70;;;;;;;;;;4842446;29;20028;-75
2022/08/01 13:09:19;;;;;;;0.90;0.80;;;;;;;;;;4825815;29;20037;-81
2022/08/01 13:11:47;;;;;;;2.28;0.90;;;;;;;;;;4842276;29;20484;-78
2022/08/01 13:14:29;;;;;;;1.80;0.80;;;;;;;;;;4842209;29;20034;-78
2022/08/01 13:16:55;;;;;;;5.18;0.90;;;;;;;;;;4841656;29;20559;-79
2022/08/01 13:19:21;;;;;;;1.95;0.80;;;;;;;;;;4851884;29;20037;-79
2022/08/01 13:21:57;;;;;;;1.55;0.82;;;;;;;;;;4859700;29;20022;-78
2022/08/01 13:24:27;;;;;;;1.98;0.90;;;;;;;;;;4841634;29;20037;-76
2022/08/01 13:27:03;;;;;;;1.02;0.90;;;;;;;;;;4841759;29;20030;-78
2022/08/01 13:29:31;;;;;;;4.72;1.10;;;;;;;;;;4842187;29;20026;-77
2022/08/01 13:31:58;;;;;;;3.45;0.70;;;;;;;;;;4842227;29;20030;-69
2022/08/01 13:34:31;;;;;;;1.23;0.80;;;;;;;;;;4841438;29;20440;-68
2022/08/01 13:36:57;;;;;;;2.72;0.75;;;;;;;;;;4841955;29;20484;-67
2022/08/01 13:42:09;;;;;;;3.97;1.02;;;;;;;;;;4841583;29;20484;-74
2022/08/01 13:44:36;;;;;;;0.85;0.80;;;;;;;;;;4841424;29;20491;-71
2022/08/01 13:47:03;;;;;;;0.75;0.70;;;;;;;;;;4840804;29;20026;-72
2022/08/01 13:49:30;;;;;;;3.00;0.88;;;;;;;;;;4824277;29;20025;-71
2022/08/01 13:51:57;;;;;;;2.90;0.70;;;;;;;;;;4840961;29;20028;-72
2022/08/01 13:54:24;;;;;;;1.17;0.80;;;;;;;;;;4841147;29;20403;-72
2022/08/01 13:56:51;;;;;;;4.32;1.20;;;;;;;;;;4841774;29;20033;-73
2022/08/01 13:59:17;;;;;;;3.35;0.82;;;;;;;;;;4825328;29;20026;-72
2022/08/01 14:01:43;;;;;;;7.78;0.90;;;;;;;;;;4840449;29;20053;-73
2022/08/01 14:04:10;;;;;;;7.57;1.00;;;;;;;;;;4840026;29;20018;-72
2022/08/01 14:06:36;;;;;;;3.28;0.90;;;;;;;;;;4841031;29;20444;-75
2022/08/01 14:09:03;;;;;;;4.38;0.88;;;;;;;;;;4841031;29;20026;-76
2022/08/01 14:11:30;;;;;;;3.50;0.90;;;;;;;;;;4841698;29;20044;-72
2022/08/01 14:13:56;;;;;;;2.33;0.70;;;;;;;;;;4840417;29;20042;-74
2022/08/01 14:16:22;;;;;;;1.33;0.80;;;;;;;;;;4837205;29;20555;-74
2022/08/01 14:18:49;;;;;;;2.25;0.80;;;;;;;;;;4846574;29;20056;-74
2022/08/01 14:21:16;;;;;;;4.22;1.05;;;;;;;;;;4859359;29;20040;-71
2022/08/01 14:23:42;;;;;;;6.70;0.80;;;;;;;;;;4859633;29;20033;-72
2022/08/01 14:26:09;;;;;;;3.70;0.85;;;;;;;;;;4859746;29;20033;-73
2022/08/01 14:28:36;;;;;;;0.80;0.60;;;;;;;;;;4859397;29;20350;-72
2022/08/01 14:31:02;;;;;;;3.95;0.95;;;;;;;;;;4859056;29;20083;-73
2022/08/01 14:33:30;;;;;;;0.75;0.63;;;;;;;;;;4859637;29;20033;-74
2022/08/01 14:35:56;;;;;;;2.50;0.80;;;;;;;;;;4859287;29;20037;-74
2022/08/01 14:38:23;;;;;;;3.90;0.95;;;;;;;;;;4859329;29;20031;-74
2022/08/01 14:40:53;;;;;;;2.05;0.70;;;;;;;;;;4852898;29;20025;-73
2022/08/01 14:43:19;;;;;;;2.20;0.97;;;;;;;;;;4840956;29;20032;-74
2022/08/01 14:45:49;;;;;;;3.13;0.90;;;;;;;;;;4839764;29;20040;-73
2022/08/01 14:48:15;;;;;;;2.45;0.93;;;;;;;;;;4839213;29;20018;-73
2022/08/01 14:50:42;;;;;;;2.22;0.80;;;;;;;;;;4840851;29;20042;-74
2022/08/01 14:53:08;;;;;;;2.97;0.68;;;;;;;;;;4839929;29;20026;-74
2022/08/01 14:55:34;;;;;;;5.25;0.60;;;;;;;;;;4839737;29;20099;-73
2022/08/01 14:58:01;;;;;;;1.48;0.80;;;;;;;;;;4841440;29;20494;-73
2022/08/01 15:00:27;;;;;;;2.45;0.85;;;;;;;;;;4840934;29;20026;-74
2022/08/01 15:02:53;;;;;;;3.92;0.55;;;;;;;;;;4840954;29;20026;-73
2022/08/01 15:05:20;;;;;;;2.63;0.80;;;;;;;;;;4841226;29;20022;-74
2022/08/01 15:07:46;;;;;;;3.22;0.80;;;;;;;;;;4840331;29;20037;-73
2022/08/01 15:10:13;;;;;;;3.60;1.00;;;;;;;;;;4840801;29;20045;-74
2022/08/01 15:12:39;;;;;;;1.58;0.85;;;;;;;;;;4841206;29;20026;-73
2022/08/01 15:15:06;;;;;;;2.95;0.80;;;;;;;;;;4840739;29;20038;-72
2022/08/01 15:17:33;;;;;;;3.42;0.80;;;;;;;;;;4840952;29;20030;-74
2022/08/01 15:20:01;;;;;;;1.58;0.90;;;;;;;;;;4857145;29;20093;-74
2022/08/01 15:22:28;;;;;;;2.88;0.90;;;;;;;;;;4863397;29;20030;-67
2022/08/01 15:24:55;;;;;;;3.38;1.05;;;;;;;;;;4843220;29;20026;-67
2022/08/01 15:27:21;;;;;;;0.95;0.80;;;;;;;;;;4845105;29;20369;-67
2022/08/01 15:29:48;;;;;;;5.50;1.15;;;;;;;;;;4844358;29;20036;-67
2022/08/01 15:32:15;;;;;;;3.13;0.98;;;;;;;;;;4828365;29;20034;-67
2022/08/01 15:34:42;;;;;;;4.93;0.90;;;;;;;;;;4844060;29;20097;-67
2022/08/01 15:37:08;;;;;;;1.38;0.90;;;;;;;;;;4844748;29;20026;-67
2022/08/01 15:39:36;;;;;;;0.90;0.80;;;;;;;;;;4844920;29;20595;-67
2022/08/01 15:42:07;;;;;;;1.50;0.90;;;;;;;;;;4845255;29;20022;-67
2022/08/01 15:44:33;;;;;;;2.97;1.13;;;;;;;;;;4844749;29;20034;-67
2022/08/01 15:47:00;;;;;;;1.05;0.80;;;;;;;;;;4844734;29;20026;-67
2022/08/01 15:49:26;;;;;;;1.38;0.90;;;;;;;;;;4845227;29;20037;-67
2022/08/01 15:51:53;;;;;;;2.35;0.63;;;;;;;;;;4845066;29;20048;-67
2022/08/01 15:54:19;;;;;;;5.53;0.80;;;;;;;;;;4844750;29;20046;-67
2022/08/01 15:56:46;;;;;;;1.55;0.88;;;;;;;;;;4844828;29;20500;-67
2022/08/01 15:59:12;;;;;;;2.28;1.02;;;;;;;;;;4844656;29;20040;-67
2022/08/01 16:01:40;;;;;;;6.20;0.77;;;;;;;;;;4844659;29;20038;-67
2022/08/01 16:04:06;;;;;;;0.75;0.70;;;;;;;;;;4844691;29;20037;-67
2022/08/01 16:06:34;;;;;;;2.35;0.82;;;;;;;;;;4844816;29;20026;-67
2022/08/01 16:09:00;;;;;;;2.13;0.82;;;;;;;;;;4844584;29;20026;-67
2022/08/01 16:11:26;;;;;;;1.13;0.60;;;;;;;;;;4844307;29;20038;-67
2022/08/01 16:13:53;;;;;;;1.15;0.60;;;;;;;;;;4844072;29;20032;-67
2022/08/01 16:16:20;;;;;;;2.25;0.73;;;;;;;;;;4844343;29;20474;-67
2022/08/01 16:18:46;;;;;;;1.73;0.70;;;;;;;;;;4849834;29;20048;-67
2022/08/01 16:21:13;;;;;;;1.00;0.70;;;;;;;;;;4863010;29;20044;-67
2022/08/01 16:23:40;;;;;;;2.15;0.80;;;;;;;;;;4862610;29;20029;-67
2022/08/01 16:26:07;;;;;;;0.75;0.70;;;;;;;;;;4862805;29;20035;-67
2022/08/01 16:28:34;;;;;;;3.80;0.80;;;;;;;;;;4862420;29;20026;-67
2022/08/01 16:31:00;;;;;;;3.20;0.73;;;;;;;;;;4845450;29;20406;-67
2022/08/01 16:33:27;;;;;;;2.17;0.80;;;;;;;;;;4862744;29;20038;-67
2022/08/01 16:35:53;;;;;;;1.27;0.80;;;;;;;;;;4862241;29;20038;-67
2022/08/01 16:38:22;;;;;;;2.20;0.82;;;;;;;;;;4862666;29;20033;-66
2022/08/01 16:40:54;;;;;;;0.63;0.60;;;;;;;;;;4862443;29;20063;-67
2022/08/01 16:43:20;;;;;;;3.70;0.80;;;;;;;;;;4845600;29;20038;-67
2022/08/01 16:45:47;;;;;;;1.58;0.70;;;;;;;;;;4862073;29;20055;-67
2022/08/01 16:48:14;;;;;;;1.40;0.90;;;;;;;;;;4862422;29;20021;-67
2022/08/01 16:50:41;;;;;;;2.97;0.70;;;;;;;;;;4862183;29;20055;-67
2022/08/01 16:53:08;;;;;;;1.75;0.70;;;;;;;;;;4845717;29;20032;-67
2022/08/01 16:55:35;;;;;;;0.77;0.70;;;;;;;;;;4861730;29;20547;-67
2022/08/01 16:58:01;;;;;;;1.13;0.80;;;;;;;;;;4862201;29;20030;-67
2022/08/01 17:00:27;;;;;;;4.15;0.80;;;;;;;;;;4861909;29;20061;-67
2022/08/01 17:02:54;;;;;;;4.25;0.90;;;;;;;;;;4861866;29;20026;-67
2022/08/01 17:05:21;;;;;;;1.58;0.70;;;;;;;;;;4862028;29;20033;-67
2022/08/01 17:07:47;;;;;;;2.55;0.90;;;;;;;;;;4861903;29;20025;-67
2022/08/01 17:10:14;;;;;;;1.33;0.82;;;;;;;;;;4861601;29;20029;-67
2022/08/01 17:12:41;;;;;;;1.52;0.70;;;;;;;;;;4861581;29;20034;-67
2022/08/01 17:15:07;;;;;;;5.75;1.15;;;;;;;;;;4861512;29;20038;-66
2022/08/01 17:17:34;;;;;;;3.88;0.85;;;;;;;;;;4861838;29;20040;-67
2022/08/01 17:20:00;;;;;;;1.27;0.80;;;;;;;;;;4861445;29;20033;-67
2022/08/01 17:22:27;;;;;;;5.80;0.85;;;;;;;;;;4861616;29;20029;-67
2022/08/01 17:24:53;;;;;;;2.05;0.90;;;;;;;;;;4861239;29;20036;-67
2022/08/01 17:27:19;;;;;;;2.13;0.88;;;;;;;;;;4861664;29;20025;-67
2022/08/01 17:29:45;;;;;;;1.52;0.60;;;;;;;;;;4861524;29;20037;-67
2022/08/01 17:32:12;;;;;;;2.90;0.80;;;;;;;;;;4861614;29;20029;-67
2022/08/01 17:34:39;;;;;;;1.83;0.80;;;;;;;;;;4861090;29;20425;-67
2022/08/01 17:37:06;;;;;;;1.85;0.80;;;;;;;;;;4861660;29;20034;-67
2022/08/01 17:39:32;;;;;;;1.45;0.70;;;;;;;;;;4860960;29;20517;-67
2022/08/01 17:41:58;;;;;;;1.23;0.80;;;;;;;;;;4861549;29;20040;-67
2022/08/01 17:44:26;;;;;;;2.63;0.70;;;;;;;;;;4860187;29;20041;-67
2022/08/01 17:46:52;;;;;;;1.25;0.77;;;;;;;;;;4861291;29;20038;-67
2022/08/01 17:49:20;;;;;;;0.60;0.60;;;;;;;;;;4861009;29;20026;-67
2022/08/01 17:51:47;;;;;;;2.17;0.63;;;;;;;;;;4861045;29;20029;-67
2022/08/01 17:54:13;;;;;;;0.95;0.60;;;;;;;;;;4861036;29;20112;-67
2022/08/01 17:56:40;;;;;;;1.58;0.77;;;;;;;;;;4860936;29;20471;-67
2022/08/01 17:59:06;;;;;;;0.75;0.70;;;;;;;;;;4861240;29;20084;-67
2022/08/01 18:01:34;;;;;;;3.58;0.77;;;;;;;;;;4860871;29;20036;-67
2022/08/01 18:04:01;;;;;;;1.83;0.85;;;;;;;;;;4860951;29;20025;-67
2022/08/01 18:06:27;;;;;;;1.20;0.70;;;;;;;;;;4861034;29;20028;-67
2022/08/01 18:08:54;;;;;;;5.43;0.75;;;;;;;;;;4860460;29;20030;-67
2022/08/01 18:11:21;;;;;;;1.13;0.70;;;;;;;;;;4860788;29;20394;-67
2022/08/01 18:13:47;;;;;;;4.63;1.10;;;;;;;;;;4860573;29;20029;-67
2022/08/01 18:16:13;;;;;;;1.42;0.70;;;;;;;;;;4860728;29;20459;-67
2022/08/01 18:18:40;;;;;;;1.10;0.80;;;;;;;;;;4860683;29;20109;-67
2022/08/01 18:21:07;;;;;;;2.72;1.02;;;;;;;;;;4860381;29;20037;-67
2022/08/01 18:23:34;;;;;;;1.88;0.82;;;;;;;;;;4860230;29;20506;-67
2022/08/01 18:26:01;;;;;;;2.85;0.93;;;;;;;;;;4860527;29;20033;-67
2022/08/01 18:28:30;;;;;;;1.42;0.77;;;;;;;;;;4860490;29;20029;-67
2022/08/01 18:30:56;;;;;;;1.70;0.68;;;;;;;;;;4860529;29;20029;-67
2022/08/01 18:33:23;;;;;;;2.90;0.90;;;;;;;;;;4860617;29;20038;-67
2022/08/01 18:35:49;;;;;;;2.15;0.80;;;;;;;;;;4860279;29;20041;-67
2022/08/01 18:38:15;;;;;;;1.67;0.80;;;;;;;;;;4860042;29;20059;-67
2022/08/01 18:40:42;;;;;;;1.20;0.80;;;;;;;;;;4860518;29;20033;-67
2022/08/01 18:43:09;;;;;;;4.68;0.80;;;;;;;;;;4860721;29;20014;-67
2022/08/01 18:45:35;;;;;;;1.27;0.70;;;;;;;;;;4860186;29;20052;-67
2022/08/01 18:48:02;;;;;;;2.53;0.88;;;;;;;;;;4860403;29;20477;-67
2022/08/01 18:50:28;;;;;;;3.20;1.20;;;;;;;;;;4860490;29;20038;-67
2022/08/01 18:52:54;;;;;;;5.35;0.63;;;;;;;;;;4859791;29;20025;-67
2022/08/01 18:55:21;;;;;;;3.28;0.80;;;;;;;;;;4863980;29;20065;-67
2022/08/01 18:57:47;;;;;;;2.85;0.85;;;;;;;;;;4866388;29;20081;-67
2022/08/01 19:00:14;;;;;;;1.55;0.80;;;;;;;;;;4866222;29;20033;-67
2022/08/01 19:02:41;;;;;;;4.63;0.95;;;;;;;;;;4866249;29;20020;-67
2022/08/01 19:05:08;;;;;;;4.03;0.90;;;;;;;;;;4866194;29;20045;-67
2022/08/01 19:07:34;;;;;;;3.42;0.80;;;;;;;;;;4865902;29;20021;-67
2022/08/01 19:10:01;;;;;;;2.72;1.30;;;;;;;;;;4866187;29;20040;-66
2022/08/01 19:12:28;;;;;;;4.00;1.30;;;;;;;;;;4866190;29;20037;-67
2022/08/01 19:14:55;;;;;;;1.48;0.98;;;;;;;;;;4866148;29;20376;-67
2022/08/01 19:17:21;;;;;;;1.90;1.00;;;;;;;;;;4866299;29;20025;-66
2022/08/01 19:19:48;;;;;;;1.35;0.80;;;;;;;;;;4865739;29;20041;-67
2022/08/01 19:22:17;;;;;;;5.30;1.00;;;;;;;;;;4866152;29;20036;-67
2022/08/01 19:24:43;;;;;;;2.42;0.80;;;;;;;;;;4866197;29;20021;-67
2022/08/01 19:27:12;;;;;;;2.60;0.95;;;;;;;;;;4866191;29;20081;-67
2022/08/01 19:29:39;;;;;;;2.28;0.73;;;;;;;;;;4866310;29;20044;-67
2022/08/01 19:32:08;;;;;;;3.30;0.90;;;;;;;;;;4866478;29;20479;-67
2022/08/01 19:34:36;;;;;;;1.27;0.82;;;;;;;;;;4865879;29;20029;-67
2022/08/01 19:37:03;;;;;;;2.92;1.10;;;;;;;;;;4865921;29;20021;-67
2022/08/01 19:39:29;;;;;;;5.03;1.10;;;;;;;;;;4866278;29;20026;-67
2022/08/01 19:41:58;;;;;;;1.92;1.02;;;;;;;;;;4866131;29;20497;-67
2022/08/01 19:44:27;;;;;;;4.78;1.00;;;;;;;;;;4865894;29;20509;-67
2022/08/01 19:46:53;;;;;;;8.45;1.17;;;;;;;;;;4865882;29;20046;-66
2022/08/01 19:49:20;;;;;;;4.10;1.20;;;;;;;;;;4849379;29;20509;-67
2022/08/01 19:51:48;;;;;;;3.60;0.90;;;;;;;;;;4865690;29;20459;-67
2022/08/01 19:54:15;;;;;;;2.92;1.10;;;;;;;;;;4865801;29;20025;-67
2022/08/01 19:56:44;;;;;;;3.33;1.02;;;;;;;;;;4865829;29;20056;-67
2022/08/01 19:59:16;;;;;;;2.35;0.80;;;;;;;;;;4865652;29;20033;-67
2022/08/01 20:01:43;;;;;;;3.15;0.80;;;;;;;;;;4865710;29;20040;-66
2022/08/01 20:04:10;;;;;;;1.08;0.90;;;;;;;;;;4865701;29;20032;-67
2022/08/01 20:06:36;;;;;;;1.95;1.02;;;;;;;;;;4863269;29;20030;-67
2022/08/01 20:09:04;;;;;;;4.55;0.90;;;;;;;;;;4846383;29;20502;-67
2022/08/01 20:11:30;;;;;;;3.25;0.80;;;;;;;;;;4862908;29;20039;-67
2022/08/01 20:13:57;;;;;;;0.73;0.73;;;;;;;;;;4862739;29;20478;-67
2022/08/01 20:16:24;;;;;;;2.03;0.88;;;;;;;;;;4863090;29;20034;-67
2022/08/01 20:18:51;;;;;;;1.88;0.93;;;;;;;;;;4862451;29;20044;-66
2022/08/01 20:21:17;;;;;;;0.80;0.80;;;;;;;;;;4862399;29;20033;-67
2022/08/01 20:23:45;;;;;;;1.15;1.05;;;;;;;;;;4862482;29;20039;-67
2022/08/01 20:26:12;;;;;;;3.92;0.90;;;;;;;;;;4862611;29;20029;-67
2022/08/01 20:28:42;;;;;;;1.40;0.95;;;;;;;;;;4862506;29;20034;-67
2022/08/01 20:31:09;;;;;;;3.40;1.00;;;;;;;;;;4862746;29;20039;-67
2022/08/01 20:33:39;;;;;;;3.20;1.20;;;;;;;;;;4862163;29;20036;-67
2022/08/01 20:36:05;;;;;;;;;;;;;;;;;;4862770;29;20072;-66
2022/08/01 20:38:33;;;;;;;2.50;1.13;;;;;;;;;;4862415;29;19919;-67
2022/08/01 20:41:02;;;;;;;1.92;0.90;;;;;;;;;;4862317;29;20029;-67
2022/08/01 20:43:29;;;;;;;1.10;1.00;;;;;;;;;;4862336;29;20482;-67
2022/08/01 20:45:55;;;;;;;2.85;1.10;;;;;;;;;;4862562;29;20041;-67
2022/08/01 20:48:23;;;;;;;1.00;0.90;;;;;;;;;;4861758;29;20036;-67
2022/08/01 20:53:39;;;;;;;1.30;0.90;;;;;;;;;;4862190;29;20041;-67
2022/08/01 20:56:16;;;;;;;1.67;0.85;;;;;;;;;;4862038;29;20044;-67
2022/08/01 20:58:42;;;;;;;1.20;0.85;;;;;;;;;;4862435;29;20033;-67
2022/08/01 21:01:10;;;;;;;1.20;1.00;;;;;;;;;;4845407;29;20026;-67
2022/08/01 21:03:40;;;;;;;2.80;0.90;;;;;;;;;;4861658;29;20037;-66
2022/08/01 21:06:13;;;;;;;3.22;0.80;;;;;;;;;;4861966;29;20040;-67